Time;durP1;ratioP1;P1;durP2;ratioP2;P2;SDS_P1;SDS_P2;PMS_P1;PMS_P2;Temp;Humidity;BMP_temperature;BMP_pressure;BME280_temperature;BME280_humidity;BME280_pressure;Samples;Min_cycle;Max_cycle;Signal;HPM_P1;HPM_P2
2023/12/26 00:00:45;;;;;;;5.47;0.90;;;9.30;99.90;;;;;;4973764;28;20375;-75
2023/12/26 00:03:11;;;;;;;1.10;0.65;;;9.40;99.90;;;;;;4957313;28;20053;-76
2023/12/26 00:05:39;;;;;;;2.42;0.85;;;9.40;99.90;;;;;;4957749;28;20037;-75
2023/12/26 00:08:06;;;;;;;1.88;0.88;;;9.30;99.90;;;;;;4957143;28;20479;-76
2023/12/26 00:10:32;;;;;;;2.60;0.63;;;9.40;99.90;;;;;;4957482;28;20098;-75
2023/12/26 00:13:00;;;;;;;1.58;0.85;;;9.40;99.90;;;;;;4957054;28;20460;-76
2023/12/26 00:15:26;;;;;;;2.30;0.63;;;9.40;99.90;;;;;;4973716;28;20030;-75
2023/12/26 00:17:51;;;;;;;3.25;0.77;;;9.40;99.90;;;;;;4957607;28;20026;-75
2023/12/26 00:20:17;;;;;;;1.80;0.70;;;9.40;99.90;;;;;;4957443;28;20182;-76
2023/12/26 00:22:43;;;;;;;3.13;0.60;;;9.40;99.90;;;;;;4957576;28;20535;-75
2023/12/26 00:25:09;;;;;;;5.07;0.90;;;9.40;99.90;;;;;;4956877;28;20380;-75
2023/12/26 00:27:37;;;;;;;2.58;0.68;;;9.40;99.90;;;;;;4957281;28;20387;-76
2023/12/26 00:30:03;;;;;;;7.53;0.85;;;9.40;99.90;;;;;;4956843;28;20026;-76
2023/12/26 00:32:29;;;;;;;1.30;0.85;;;9.40;99.90;;;;;;4957312;28;20114;-75
2023/12/26 00:34:55;;;;;;;1.98;0.70;;;9.40;99.90;;;;;;4974017;28;20105;-76
2023/12/26 00:37:21;;;;;;;4.78;1.25;;;9.40;99.90;;;;;;4953771;29;20438;-75
2023/12/26 00:39:47;;;;;;;1.50;0.60;;;9.40;99.90;;;;;;4955269;28;20027;-75
2023/12/26 00:42:12;;;;;;;1.48;0.70;;;9.40;99.90;;;;;;4953540;28;20423;-76
2023/12/26 00:44:38;;;;;;;1.70;0.60;;;9.40;99.90;;;;;;4953620;29;20028;-76
2023/12/26 00:47:04;;;;;;;1.77;0.65;;;9.40;99.90;;;;;;4953420;29;20384;-76
2023/12/26 00:49:29;;;;;;;2.13;0.90;;;9.40;99.90;;;;;;4953836;28;20046;-75
2023/12/26 00:51:55;;;;;;;3.65;1.00;;;9.40;99.90;;;;;;4953562;29;20029;-77
2023/12/26 00:54:20;;;;;;;1.88;0.75;;;9.40;99.90;;;;;;4954923;28;20046;-76
2023/12/26 00:56:46;;;;;;;4.13;0.80;;;9.40;99.90;;;;;;4953816;29;20452;-75
2023/12/26 00:59:12;;;;;;;0.85;0.68;;;9.40;99.90;;;;;;4953274;28;20074;-76
2023/12/26 01:01:37;;;;;;;2.70;0.80;;;9.40;99.90;;;;;;4953801;28;20031;-75
2023/12/26 01:04:03;;;;;;;1.55;0.63;;;9.40;99.90;;;;;;4954059;28;20031;-75
2023/12/26 01:06:29;;;;;;;1.88;0.80;;;9.30;99.90;;;;;;4953521;28;20027;-75
2023/12/26 01:08:54;;;;;;;1.95;1.20;;;9.30;99.90;;;;;;4954704;28;20480;-87
2023/12/26 01:11:20;;;;;;;2.15;0.90;;;9.30;99.90;;;;;;4954820;28;20042;-75
2023/12/26 01:13:46;;;;;;;1.10;0.77;;;9.30;99.90;;;;;;4953595;28;20043;-75
2023/12/26 01:16:11;;;;;;;1.55;0.80;;;9.30;99.90;;;;;;4953190;29;20031;-75
2023/12/26 01:18:37;;;;;;;3.20;0.80;;;9.30;99.90;;;;;;4954758;28;20417;-75
2023/12/26 01:21:03;;;;;;;2.58;0.90;;;9.40;99.90;;;;;;4953118;29;20480;-76
2023/12/26 01:23:29;;;;;;;2.95;0.77;;;9.40;99.90;;;;;;4953509;28;20381;-75
2023/12/26 01:25:54;;;;;;;2.65;0.80;;;9.30;99.90;;;;;;4954734;28;20031;-75
2023/12/26 01:28:20;;;;;;;2.70;0.85;;;9.30;99.90;;;;;;4954144;28;20072;-75
2023/12/26 01:30:45;;;;;;;5.82;1.13;;;9.30;99.90;;;;;;4954341;28;20094;-75
2023/12/26 01:33:11;;;;;;;5.03;0.70;;;9.30;99.90;;;;;;4954063;28;20035;-75
2023/12/26 01:35:37;;;;;;;1.20;0.80;;;9.30;99.90;;;;;;4953433;28;20538;-75
2023/12/26 01:38:03;;;;;;;2.13;0.82;;;9.30;99.90;;;;;;4971048;28;20105;-75
2023/12/26 01:40:29;;;;;;;1.17;0.80;;;9.30;99.90;;;;;;4972279;28;20211;-75
2023/12/26 01:42:54;;;;;;;2.40;0.90;;;9.20;99.90;;;;;;4956566;28;20027;-75
2023/12/26 01:45:20;;;;;;;3.55;1.10;;;9.20;99.90;;;;;;4973017;28;20050;-75
2023/12/26 01:47:53;;;;;;;2.20;0.90;;;9.20;99.90;;;;;;4956506;28;20058;-76
2023/12/26 01:50:20;;;;;;;2.45;0.80;;;9.20;99.90;;;;;;4972035;28;20038;-76
2023/12/26 01:52:47;;;;;;;3.35;0.90;;;9.10;99.90;;;;;;4956422;28;20061;-75
2023/12/26 01:55:14;;;;;;;2.55;0.98;;;9.20;99.90;;;;;;4973227;28;20097;-76
2023/12/26 01:57:41;;;;;;;2.70;1.00;;;9.20;99.90;;;;;;4956338;28;20126;-75
2023/12/26 02:00:07;;;;;;;3.70;0.80;;;9.10;99.90;;;;;;4973229;28;20033;-76
2023/12/26 02:02:33;;;;;;;2.10;0.90;;;9.20;99.90;;;;;;4956253;28;20035;-75
2023/12/26 02:04:59;;;;;;;3.38;1.02;;;9.10;99.90;;;;;;4973431;28;20051;-81
2023/12/26 02:07:25;;;;;;;2.42;0.98;;;9.10;99.90;;;;;;4972726;28;20023;-75
2023/12/26 02:09:51;;;;;;;1.50;0.90;;;9.10;99.90;;;;;;4972313;28;20038;-75
2023/12/26 02:12:17;;;;;;;2.55;1.02;;;9.20;99.90;;;;;;4955869;28;20464;-75
2023/12/26 02:14:44;;;;;;;1.58;0.80;;;9.10;99.90;;;;;;4973424;28;20034;-75
2023/12/26 02:17:15;;;;;;;2.92;1.00;;;9.20;99.90;;;;;;4958364;28;20487;-75
2023/12/26 02:19:42;;;;;;;2.78;1.00;;;9.10;99.90;;;;;;4959669;28;20038;-75
2023/12/26 02:22:08;;;;;;;3.08;0.75;;;9.10;99.90;;;;;;4976469;28;20031;-75
2023/12/26 02:24:34;;;;;;;3.20;1.00;;;9.10;99.90;;;;;;4976898;28;20033;-76
2023/12/26 02:27:00;;;;;;;4.00;1.20;;;9.10;99.90;;;;;;4959268;28;20207;-91
2023/12/26 02:29:28;;;;;;;1.80;0.80;;;9.10;99.90;;;;;;4976558;28;20031;-75
2023/12/26 02:31:55;;;;;;;2.95;0.93;;;9.10;99.90;;;;;;4976774;28;20031;-75
2023/12/26 02:34:22;;;;;;;1.77;0.70;;;9.10;99.90;;;;;;4975027;28;20043;-75
2023/12/26 02:36:48;;;;;;;1.95;0.77;;;9.10;99.90;;;;;;4959067;28;20046;-75
2023/12/26 02:39:14;;;;;;;4.32;1.02;;;9.10;99.90;;;;;;4958789;28;20061;-76
2023/12/26 02:41:40;;;;;;;5.50;1.00;;;9.10;99.90;;;;;;4959335;28;20027;-75
2023/12/26 02:44:06;;;;;;;1.33;0.88;;;9.10;99.90;;;;;;4958928;28;20027;-76
2023/12/26 02:46:32;;;;;;;2.83;0.95;;;9.10;99.90;;;;;;4976765;28;20035;-75
2023/12/26 02:48:57;;;;;;;4.70;0.82;;;9.20;99.90;;;;;;4959284;28;20034;-75
2023/12/26 02:51:23;;;;;;;2.90;0.80;;;9.10;99.90;;;;;;4975769;28;20022;-76
2023/12/26 02:53:49;;;;;;;4.47;0.93;;;9.20;99.90;;;;;;4976345;28;20107;-75
2023/12/26 02:56:15;;;;;;;1.63;0.95;;;9.20;99.90;;;;;;4975909;28;20026;-75
2023/12/26 02:58:40;;;;;;;2.72;1.00;;;9.20;99.90;;;;;;4958964;28;20027;-75
2023/12/26 03:01:06;;;;;;;2.28;0.82;;;9.20;99.90;;;;;;4958563;28;20066;-75
2023/12/26 03:03:32;;;;;;;3.50;1.08;;;9.20;99.90;;;;;;4976436;28;20527;-75
2023/12/26 03:05:57;;;;;;;2.10;0.90;;;9.20;99.90;;;;;;4974987;28;20106;-76
2023/12/26 03:08:23;;;;;;;1.80;0.63;;;9.20;99.90;;;;;;4958444;28;20031;-75
2023/12/26 03:10:49;;;;;;;3.03;0.70;;;9.20;99.90;;;;;;4974839;28;20023;-75
2023/12/26 03:13:15;;;;;;;3.85;0.95;;;9.20;99.90;;;;;;4958129;28;20035;-76
2023/12/26 03:15:40;;;;;;;2.17;0.70;;;9.30;99.90;;;;;;4958746;28;20031;-75
2023/12/26 03:18:06;;;;;;;2.15;0.82;;;9.20;99.90;;;;;;4958217;28;20023;-76
2023/12/26 03:20:32;;;;;;;2.55;0.90;;;9.30;99.90;;;;;;4958584;28;20030;-76
2023/12/26 03:22:57;;;;;;;2.00;1.00;;;9.30;99.90;;;;;;4958485;28;20129;-75
2023/12/26 03:25:23;;;;;;;2.50;0.80;;;9.30;99.90;;;;;;4958049;28;20483;-75
2023/12/26 03:27:49;;;;;;;2.50;0.70;;;9.30;99.90;;;;;;4975210;28;20042;-75
2023/12/26 03:30:15;;;;;;;3.40;0.80;;;9.40;99.90;;;;;;4974176;28;20034;-75
2023/12/26 03:32:40;;;;;;;4.75;1.00;;;9.40;99.90;;;;;;4958695;28;20030;-75
2023/12/26 03:35:06;;;;;;;4.40;1.00;;;9.40;99.90;;;;;;4973879;28;20039;-75
2023/12/26 03:37:32;;;;;;;3.63;1.10;;;9.40;99.90;;;;;;4957977;28;20472;-75
2023/12/26 03:39:58;;;;;;;3.33;0.80;;;9.40;99.90;;;;;;4975592;28;20030;-75
2023/12/26 03:42:23;;;;;;;2.10;0.88;;;9.40;99.90;;;;;;4957804;28;20054;-75
2023/12/26 03:44:49;;;;;;;2.47;1.02;;;9.50;99.90;;;;;;4957667;28;20034;-75
2023/12/26 03:47:14;;;;;;;2.55;0.60;;;9.50;99.90;;;;;;4957595;28;20023;-75
2023/12/26 03:49:40;;;;;;;2.05;0.80;;;9.50;99.90;;;;;;4975309;28;20062;-75
2023/12/26 03:52:06;;;;;;;3.83;1.08;;;9.50;99.90;;;;;;4957625;28;20031;-76
2023/12/26 03:54:31;;;;;;;1.58;0.80;;;9.50;99.90;;;;;;4974879;28;20489;-75
2023/12/26 03:56:57;;;;;;;3.78;1.10;;;9.50;99.90;;;;;;4957930;28;20027;-75
2023/12/26 03:59:22;;;;;;;1.80;0.70;;;9.50;99.90;;;;;;4957002;28;20380;-75
2023/12/26 04:01:48;;;;;;;2.95;1.02;;;9.50;99.90;;;;;;4975174;28;20035;-75
2023/12/26 04:04:13;;;;;;;3.55;1.17;;;9.50;99.90;;;;;;4957368;28;20127;-76
2023/12/26 04:06:39;;;;;;;3.05;0.85;;;9.50;99.90;;;;;;4974994;28;20081;-76
2023/12/26 04:09:05;;;;;;;3.97;0.85;;;9.50;99.90;;;;;;4973865;28;20033;-75
2023/12/26 04:11:32;;;;;;;5.88;1.10;;;9.50;99.90;;;;;;4973712;28;20085;-75
2023/12/26 04:13:57;;;;;;;3.35;0.82;;;9.50;99.90;;;;;;4975017;28;20035;-75
2023/12/26 04:16:23;;;;;;;3.60;0.98;;;9.50;99.90;;;;;;4974168;28;20420;-75
2023/12/26 04:18:49;;;;;;;3.67;1.00;;;9.50;99.90;;;;;;4973542;28;20034;-75
2023/12/26 04:21:14;;;;;;;2.45;0.90;;;9.50;99.90;;;;;;4957034;28;20038;-75
2023/12/26 04:23:40;;;;;;;3.53;0.90;;;9.50;99.90;;;;;;4957619;28;20038;-75
2023/12/26 04:26:06;;;;;;;3.38;0.90;;;9.50;99.90;;;;;;4974510;28;20468;-75
2023/12/26 04:28:33;;;;;;;4.35;1.10;;;9.50;99.90;;;;;;4957229;28;20033;-75
2023/12/26 04:30:58;;;;;;;5.25;2.00;;;9.50;99.90;;;;;;4974668;28;20101;-75
2023/12/26 04:33:25;;;;;;;8.45;0.90;;;9.50;99.90;;;;;;4956762;28;20479;-75
2023/12/26 04:35:50;;;;;;;4.43;1.00;;;9.50;99.90;;;;;;4974654;28;20077;-75
2023/12/26 04:38:16;;;;;;;2.72;0.95;;;9.50;99.90;;;;;;4974237;28;20051;-76
2023/12/26 04:40:42;;;;;;;3.22;0.93;;;9.50;99.90;;;;;;4956451;28;20027;-75
2023/12/26 04:43:08;;;;;;;3.78;1.00;;;9.50;99.90;;;;;;4956912;28;20034;-92
2023/12/26 04:45:38;;;;;;;2.53;0.80;;;9.50;99.90;;;;;;4957388;28;20069;-76
2023/12/26 04:48:07;;;;;;;4.20;1.55;;;9.50;99.90;;;;;;4974339;28;20027;-75
2023/12/26 04:50:34;;;;;;;3.30;0.80;;;9.50;99.90;;;;;;4957244;28;20034;-75
2023/12/26 04:53:01;;;;;;;4.25;1.30;;;9.50;99.90;;;;;;4956991;28;20392;-75
2023/12/26 04:55:26;;;;;;;1.48;0.60;;;9.50;99.90;;;;;;4973629;28;20053;-75
2023/12/26 04:57:52;;;;;;;2.80;1.05;;;9.50;99.90;;;;;;4974220;28;20456;-75
2023/12/26 05:00:18;;;;;;;5.43;0.82;;;9.50;99.90;;;;;;4973771;28;20376;-76
2023/12/26 05:02:43;;;;;;;2.03;0.80;;;9.50;99.90;;;;;;4956877;28;20399;-76
2023/12/26 05:05:09;;;;;;;3.92;1.00;;;9.50;99.90;;;;;;4956354;28;20031;-91
2023/12/26 05:07:34;;;;;;;3.58;0.90;;;9.50;99.90;;;;;;4957113;28;20022;-76
2023/12/26 05:10:00;;;;;;;2.78;1.00;;;9.50;99.90;;;;;;4956742;28;20033;-76
2023/12/26 05:12:27;;;;;;;7.22;1.30;;;9.50;99.90;;;;;;4956401;28;20034;-75
2023/12/26 05:14:53;;;;;;;2.65;1.02;;;9.50;99.90;;;;;;4974025;28;20031;-75
2023/12/26 05:17:19;;;;;;;6.07;1.00;;;9.50;99.90;;;;;;4956262;28;20085;-76
2023/12/26 05:19:44;;;;;;;4.03;0.95;;;9.50;99.90;;;;;;4956711;28;20046;-76
2023/12/26 05:22:10;;;;;;;3.65;0.80;;;9.60;99.90;;;;;;4973817;28;20431;-88
2023/12/26 05:24:35;;;;;;;3.25;0.88;;;9.50;99.90;;;;;;4956758;28;20034;-75
2023/12/26 05:27:01;;;;;;;3.97;0.98;;;9.60;99.90;;;;;;4956743;28;20121;-75
2023/12/26 05:29:27;;;;;;;4.43;1.02;;;9.60;99.90;;;;;;4973164;28;20039;-76
2023/12/26 05:31:53;;;;;;;1.83;0.85;;;9.60;99.90;;;;;;4956599;28;20035;-75
2023/12/26 05:34:19;;;;;;;2.92;0.80;;;9.60;99.90;;;;;;4956030;28;20521;-76
2023/12/26 05:36:45;;;;;;;6.90;1.10;;;9.60;99.90;;;;;;4974012;28;20058;-76
2023/12/26 05:39:11;;;;;;;2.78;0.85;;;9.60;99.90;;;;;;4973666;28;20038;-90
2023/12/26 05:41:40;;;;;;;2.70;0.75;;;9.60;99.90;;;;;;4956536;28;20027;-75
2023/12/26 05:44:05;;;;;;;3.92;1.10;;;9.60;99.90;;;;;;4973849;28;20027;-75
2023/12/26 05:46:31;;;;;;;3.83;0.95;;;9.60;99.90;;;;;;4973008;28;20039;-75
2023/12/26 05:48:57;;;;;;;4.88;1.10;;;9.60;99.90;;;;;;4956652;28;20033;-75
2023/12/26 05:51:23;;;;;;;3.47;0.85;;;9.60;99.90;;;;;;4957715;28;20078;-76
2023/12/26 05:53:49;;;;;;;6.63;0.90;;;9.60;99.90;;;;;;4977520;28;20038;-76
2023/12/26 05:56:15;;;;;;;5.20;1.00;;;9.70;99.90;;;;;;4977177;28;20101;-76
2023/12/26 05:58:40;;;;;;;4.22;0.98;;;9.70;99.90;;;;;;4977269;28;20428;-76
2023/12/26 06:01:12;;;;;;;1.70;0.70;;;9.70;99.90;;;;;;4960078;28;20472;-75
2023/12/26 06:03:38;;;;;;;2.55;0.90;;;9.60;99.90;;;;;;4977340;28;20031;-75
2023/12/26 06:06:13;;;;;;;3.40;0.70;;;9.70;99.90;;;;;;4977280;28;20568;-75
2023/12/26 06:08:40;;;;;;;2.95;0.88;;;9.70;99.90;;;;;;4960193;28;20023;-76
2023/12/26 06:11:06;;;;;;;4.10;1.02;;;9.60;99.90;;;;;;4959797;28;20125;-75
2023/12/26 06:13:32;;;;;;;2.55;0.88;;;9.70;99.90;;;;;;4976634;28;20038;-76
2023/12/26 06:15:58;;;;;;;1.65;0.95;;;9.70;99.90;;;;;;4959741;28;20427;-75
2023/12/26 06:18:23;;;;;;;4.63;0.68;;;9.70;99.90;;;;;;4959219;28;20504;-76
2023/12/26 06:20:49;;;;;;;1.20;0.70;;;9.60;99.90;;;;;;4959735;28;20031;-76
2023/12/26 06:23:15;;;;;;;4.35;0.98;;;9.60;99.90;;;;;;4959309;28;20027;-76
2023/12/26 06:25:41;;;;;;;5.90;1.55;;;9.70;99.90;;;;;;4959536;28;20058;-76
2023/12/26 06:28:06;;;;;;;4.60;0.85;;;9.60;99.90;;;;;;4959323;28;20038;-75
2023/12/26 06:30:32;;;;;;;0.82;0.60;;;9.60;99.90;;;;;;4976374;28;20035;-76
2023/12/26 06:32:58;;;;;;;2.53;0.95;;;9.60;99.90;;;;;;4976498;28;20476;-76
2023/12/26 06:35:24;;;;;;;2.42;1.15;;;9.60;99.90;;;;;;4976317;28;20058;-76
2023/12/26 06:37:49;;;;;;;3.92;1.17;;;9.60;99.90;;;;;;4976210;28;20134;-76
2023/12/26 06:40:15;;;;;;;1.98;0.98;;;9.60;99.90;;;;;;4975123;28;20370;-82
2023/12/26 06:42:41;;;;;;;2.67;0.98;;;9.60;99.90;;;;;;4959333;28;20027;-76
2023/12/26 06:45:07;;;;;;;4.07;1.20;;;9.60;99.90;;;;;;4959244;28;20126;-76
2023/12/26 06:47:33;;;;;;;6.25;1.05;;;9.60;99.90;;;;;;4958689;28;20122;-75
2023/12/26 06:49:59;;;;;;;4.00;0.93;;;9.60;99.90;;;;;;4976495;28;20058;-76
2023/12/26 06:52:24;;;;;;;3.78;0.88;;;9.60;99.90;;;;;;4974796;28;20379;-76
2023/12/26 06:54:50;;;;;;;4.90;0.82;;;9.60;99.90;;;;;;4976289;28;20089;-75
2023/12/26 06:57:15;;;;;;;2.58;0.88;;;9.50;99.90;;;;;;4975905;28;20377;-92
2023/12/26 06:59:46;;;;;;;7.72;1.15;;;9.50;99.90;;;;;;4958830;28;20031;-75
2023/12/26 07:02:12;;;;;;;3.95;1.08;;;9.50;99.90;;;;;;4958105;28;20039;-75
2023/12/26 07:04:39;;;;;;;3.67;0.82;;;9.50;99.90;;;;;;4975685;28;20480;-76
2023/12/26 07:07:05;;;;;;;3.42;1.10;;;9.50;99.90;;;;;;4976182;28;20026;-75
2023/12/26 07:09:30;;;;;;;6.43;1.17;;;9.50;99.90;;;;;;4974461;28;20022;-75
2023/12/26 07:11:56;;;;;;;3.97;0.90;;;9.50;99.90;;;;;;4976101;28;20065;-75
2023/12/26 07:14:22;;;;;;;4.43;0.70;;;9.50;99.90;;;;;;4974272;28;20041;-76
2023/12/26 07:16:47;;;;;;;3.63;1.30;;;9.50;99.90;;;;;;4976044;28;20135;-76
2023/12/26 07:19:13;;;;;;;1.00;0.70;;;9.50;99.90;;;;;;4976000;28;20050;-76
2023/12/26 07:21:38;;;;;;;1.63;0.68;;;9.50;99.90;;;;;;4958178;28;20027;-75
2023/12/26 07:24:04;;;;;;;3.88;1.00;;;9.50;99.90;;;;;;4958543;28;20030;-75
2023/12/26 07:26:30;;;;;;;6.00;1.10;;;9.40;99.90;;;;;;4958143;28;20035;-75
2023/12/26 07:28:56;;;;;;;4.45;1.17;;;9.50;99.90;;;;;;4975606;28;20034;-76
2023/12/26 07:31:22;;;;;;;7.07;1.23;;;9.50;99.90;;;;;;4975399;28;20058;-76
2023/12/26 07:33:49;;;;;;;3.88;0.93;;;9.50;99.90;;;;;;4958248;28;20547;-76
2023/12/26 07:36:15;;;;;;;2.45;0.82;;;9.50;99.90;;;;;;4975511;28;20023;-76
2023/12/26 07:38:40;;;;;;;2.67;1.02;;;9.50;99.90;;;;;;4957871;28;20030;-75
2023/12/26 07:41:06;;;;;;;3.00;1.00;;;9.50;99.90;;;;;;4974366;28;20460;-75
2023/12/26 07:43:32;;;;;;;6.30;1.10;;;9.50;99.90;;;;;;4975158;28;20109;-76
2023/12/26 07:45:58;;;;;;;3.63;0.90;;;9.50;99.90;;;;;;4974245;28;20034;-75
2023/12/26 07:48:23;;;;;;;4.20;0.90;;;9.50;99.90;;;;;;4975026;28;20035;-76
2023/12/26 07:50:49;;;;;;;1.55;0.90;;;9.50;99.90;;;;;;4975707;28;20460;-76
2023/12/26 07:53:15;;;;;;;4.50;1.33;;;9.50;99.90;;;;;;4974074;28;20376;-75
2023/12/26 07:55:41;;;;;;;7.45;1.13;;;9.50;99.90;;;;;;4974745;28;20027;-76
2023/12/26 07:58:08;;;;;;;2.25;1.02;;;9.50;99.90;;;;;;4957685;28;20039;-75
2023/12/26 08:00:33;;;;;;;6.15;1.10;;;9.50;99.90;;;;;;4957434;28;20392;-76
2023/12/26 08:02:59;;;;;;;3.08;0.93;;;9.50;99.90;;;;;;4974894;28;20040;-76
2023/12/26 08:05:25;;;;;;;3.50;0.82;;;9.50;99.90;;;;;;4957361;28;20464;-76
2023/12/26 08:07:50;;;;;;;3.25;1.10;;;9.50;99.90;;;;;;4974884;28;20031;-76
2023/12/26 08:10:16;;;;;;;1.90;0.90;;;9.50;99.90;;;;;;4957728;28;20543;-74
2023/12/26 08:12:42;;;;;;;3.55;1.00;;;9.50;99.90;;;;;;4957257;28;20038;-74
2023/12/26 08:15:09;;;;;;;2.88;1.20;;;9.40;99.90;;;;;;4974273;28;20419;-74
2023/12/26 08:17:35;;;;;;;2.17;1.30;;;9.50;99.90;;;;;;4974262;28;20455;-74
2023/12/26 08:20:01;;;;;;;2.28;1.00;;;9.50;99.90;;;;;;4975065;28;20119;-74
2023/12/26 08:22:26;;;;;;;5.20;1.17;;;9.50;99.90;;;;;;4956931;28;20050;-74
2023/12/26 08:24:52;;;;;;;3.42;1.00;;;9.50;99.90;;;;;;4957627;28;20027;-74
2023/12/26 08:27:18;;;;;;;11.18;1.35;;;9.50;99.90;;;;;;4973437;28;20158;-74
2023/12/26 08:29:44;;;;;;;4.70;1.25;;;9.50;99.90;;;;;;4974477;28;20377;-74
2023/12/26 08:32:10;;;;;;;2.22;0.98;;;9.50;99.90;;;;;;4974581;28;20197;-76
2023/12/26 08:34:35;;;;;;;4.63;0.90;;;9.40;99.90;;;;;;4956707;28;20045;-76
2023/12/26 08:37:02;;;;;;;3.97;1.20;;;9.40;99.90;;;;;;4957000;28;20056;-76
2023/12/26 08:39:27;;;;;;;6.78;1.20;;;9.40;99.90;;;;;;4956261;28;20027;-75
2023/12/26 08:41:53;;;;;;;3.05;1.05;;;9.40;99.90;;;;;;4974374;28;20085;-75
2023/12/26 08:44:20;;;;;;;3.38;0.90;;;9.40;99.90;;;;;;4974099;28;20186;-75
2023/12/26 08:46:45;;;;;;;5.60;1.30;;;9.40;99.90;;;;;;4973991;28;20027;-75
2023/12/26 08:49:11;;;;;;;6.63;1.35;;;9.40;99.90;;;;;;4956926;28;20054;-75
2023/12/26 08:51:39;;;;;;;5.18;1.38;;;9.40;99.90;;;;;;4972626;28;20030;-75
2023/12/26 08:54:04;;;;;;;5.60;1.40;;;9.40;99.90;;;;;;4956876;28;20031;-75
2023/12/26 08:56:30;;;;;;;5.72;1.40;;;9.30;99.90;;;;;;4956321;28;20034;-75
2023/12/26 08:58:56;;;;;;;3.72;1.38;;;9.30;99.90;;;;;;4974238;28;20066;-76
2023/12/26 09:01:21;;;;;;;6.68;1.25;;;9.30;99.90;;;;;;4974147;28;20041;-75
2023/12/26 09:03:48;;;;;;;4.85;1.42;;;9.20;99.90;;;;;;4972566;28;20037;-75
2023/12/26 09:06:14;;;;;;;5.68;1.30;;;9.20;99.90;;;;;;4972930;28;20031;-75
2023/12/26 09:08:40;;;;;;;7.25;1.40;;;9.20;99.90;;;;;;4956327;28;20033;-75
2023/12/26 09:11:06;;;;;;;3.17;1.08;;;9.20;99.90;;;;;;4956814;28;20127;-75
2023/12/26 09:13:31;;;;;;;5.28;1.40;;;9.20;99.90;;;;;;4973260;28;20110;-75
2023/12/26 09:15:59;;;;;;;3.22;1.30;;;9.20;99.90;;;;;;4974101;28;20031;-75
2023/12/26 09:18:24;;;;;;;5.32;1.42;;;9.20;99.90;;;;;;4973553;28;20019;-88
2023/12/26 09:20:50;;;;;;;7.68;1.52;;;9.30;99.90;;;;;;4972893;28;20030;-76
2023/12/26 09:23:16;;;;;;;4.38;1.38;;;9.30;99.90;;;;;;4956816;28;20027;-76
2023/12/26 09:25:41;;;;;;;4.70;1.30;;;9.30;99.90;;;;;;4974253;28;20448;-76
2023/12/26 09:28:08;;;;;;;4.00;1.30;;;9.30;99.90;;;;;;4960652;28;20464;-75
2023/12/26 09:30:34;;;;;;;8.10;1.55;;;9.30;99.90;;;;;;4977466;28;20069;-76
2023/12/26 09:33:00;;;;;;;2.78;1.05;;;9.30;99.90;;;;;;4976509;28;20027;-75
2023/12/26 09:35:25;;;;;;;5.57;1.30;;;9.30;99.90;;;;;;4975950;28;20058;-83
2023/12/26 09:37:51;;;;;;;5.10;1.20;;;9.30;99.90;;;;;;4976319;28;20050;-76
2023/12/26 09:40:18;;;;;;;2.53;1.27;;;9.30;99.90;;;;;;4976620;28;20155;-75
2023/12/26 09:42:43;;;;;;;6.25;1.40;;;9.30;99.90;;;;;;4959810;28;20023;-75
2023/12/26 09:45:11;;;;;;;8.27;1.80;;;9.20;99.90;;;;;;4960041;28;20035;-75
2023/12/26 09:47:46;;;;;;;5.68;1.70;;;9.20;99.90;;;;;;4977006;28;20107;-75
2023/12/26 09:50:11;;;;;;;6.60;1.63;;;9.10;99.90;;;;;;4977617;28;20022;-75
2023/12/26 09:52:39;;;;;;;4.43;1.30;;;9.10;99.90;;;;;;4959758;28;20038;-75
2023/12/26 09:55:05;;;;;;;5.45;1.35;;;9.10;99.90;;;;;;4977264;28;20372;-75
2023/12/26 09:57:31;;;;;;;4.07;1.55;;;9.10;99.90;;;;;;4959581;28;20039;-76
2023/12/26 09:59:57;;;;;;;3.33;1.30;;;9.00;99.90;;;;;;4977481;28;20078;-75
2023/12/26 10:02:23;;;;;;;6.55;1.45;;;9.00;99.90;;;;;;4959957;28;20027;-75
2023/12/26 10:04:49;;;;;;;7.75;1.13;;;9.00;99.90;;;;;;4959523;28;20035;-76
2023/12/26 10:07:14;;;;;;;7.75;2.17;;;9.00;99.90;;;;;;4976086;28;20030;-75
2023/12/26 10:09:41;;;;;;;7.05;1.35;;;9.10;99.90;;;;;;4959365;28;20459;-75
2023/12/26 10:12:07;;;;;;;5.70;1.30;;;9.10;99.90;;;;;;4975962;28;20031;-75
2023/12/26 10:14:32;;;;;;;4.63;1.55;;;9.00;99.90;;;;;;4975452;28;20034;-75
2023/12/26 10:16:58;;;;;;;4.10;1.35;;;9.00;99.90;;;;;;4977134;28;20078;-76
2023/12/26 10:19:25;;;;;;;5.82;1.30;;;9.00;99.90;;;;;;4977125;28;20074;-75
2023/12/26 10:21:51;;;;;;;3.15;1.70;;;9.00;99.90;;;;;;4958947;28;20030;-76
2023/12/26 10:24:18;;;;;;;4.10;1.27;;;9.00;99.90;;;;;;4959796;28;20065;-76
2023/12/26 10:26:44;;;;;;;6.85;1.73;;;9.00;99.90;;;;;;4959196;28;20026;-76
2023/12/26 10:29:13;;;;;;;5.03;1.35;;;9.10;99.90;;;;;;4959166;28;20034;-75
2023/12/26 10:31:43;;;;;;;3.00;1.27;;;9.10;99.90;;;;;;4975075;28;20404;-75
2023/12/26 10:34:18;;;;;;;4.53;1.13;;;9.20;99.90;;;;;;4959440;28;20034;-75
2023/12/26 10:36:44;;;;;;;4.45;1.33;;;9.10;99.90;;;;;;4958414;28;20050;-76
2023/12/26 10:39:11;;;;;;;4.95;1.60;;;9.20;99.90;;;;;;4958985;28;20042;-76
2023/12/26 10:41:47;;;;;;;4.38;1.50;;;9.30;99.90;;;;;;4958923;28;20387;-76
2023/12/26 10:44:15;;;;;;;5.15;1.35;;;9.30;99.90;;;;;;4959323;28;20047;-75
2023/12/26 10:46:45;;;;;;;4.70;1.40;;;9.30;99.90;;;;;;4976189;28;20535;-76
2023/12/26 10:49:13;;;;;;;3.50;1.50;;;9.20;99.90;;;;;;4976730;28;20054;-76
2023/12/26 10:51:43;;;;;;;7.30;1.45;;;9.10;99.90;;;;;;4958629;28;20460;-76
2023/12/26 10:54:25;;;;;;;5.57;1.52;;;9.10;99.90;;;;;;4975283;28;20035;-75
2023/12/26 10:56:52;;;;;;;2.63;1.27;;;9.10;99.90;;;;;;4958679;28;20038;-76
2023/12/26 13:51:25;;;;;;;4.00;1.00;;;9.60;99.90;;;;;;4973181;28;20436;-75
2023/12/26 13:53:50;;;;;;;;;;;9.60;99.90;;;;;;4956301;28;20392;-76
2023/12/26 13:56:16;;;;;;;2.85;1.35;;;9.60;99.90;;;;;;4973760;28;19906;-76
2023/12/26 13:58:42;;;;;;;4.10;1.30;;;9.60;99.90;;;;;;4972924;28;20393;-76
2023/12/26 14:01:07;;;;;;;4.25;1.27;;;9.60;99.90;;;;;;4956323;28;20035;-76
2023/12/26 14:03:34;;;;;;;4.32;1.23;;;9.60;99.90;;;;;;4956441;28;20495;-75
2023/12/26 14:06:00;;;;;;;2.08;1.20;;;9.60;99.90;;;;;;4972940;28;20026;-76
2023/12/26 14:08:25;;;;;;;3.90;1.23;;;9.60;99.90;;;;;;4956311;28;20023;-76
2023/12/26 14:10:51;;;;;;;4.28;1.20;;;9.70;99.90;;;;;;4973063;28;20023;-76
2023/12/26 14:13:17;;;;;;;5.15;1.50;;;9.70;99.90;;;;;;4976529;28;20382;-76
2023/12/26 14:15:42;;;;;;;4.55;1.30;;;9.70;99.90;;;;;;4975456;28;20054;-79
2023/12/26 14:18:09;;;;;;;4.10;1.40;;;9.70;99.90;;;;;;4959871;28;20428;-76
2023/12/26 14:20:35;;;;;;;5.38;1.23;;;9.70;99.90;;;;;;4976021;28;20034;-76
2023/12/26 14:23:00;;;;;;;3.10;1.63;;;9.70;99.90;;;;;;4976610;28;20069;-76
2023/12/26 14:25:28;;;;;;;2.33;0.98;;;9.70;99.90;;;;;;4959747;28;20074;-76
2023/12/26 14:27:53;;;;;;;1.95;0.90;;;9.80;99.90;;;;;;4976608;28;20403;-76
2023/12/26 14:30:19;;;;;;;1.63;1.00;;;9.80;99.90;;;;;;4975725;28;20035;-76
2023/12/26 14:32:46;;;;;;;3.28;1.20;;;9.80;99.90;;;;;;4976424;28;20561;-76
2023/12/26 14:35:11;;;;;;;3.38;1.20;;;9.80;99.90;;;;;;4959460;28;20042;-76
2023/12/26 14:37:37;;;;;;;4.15;1.08;;;9.80;99.90;;;;;;4955759;29;20085;-76
2023/12/26 14:40:02;;;;;;;2.50;1.33;;;9.80;99.90;;;;;;4955744;29;20840;-76
2023/12/26 14:42:28;;;;;;;1.95;0.85;;;9.80;99.90;;;;;;4955795;29;20600;-76
2023/12/26 14:44:53;;;;;;;4.25;1.05;;;9.80;99.90;;;;;;4956811;28;20036;-76
2023/12/26 14:47:19;;;;;;;1.85;0.90;;;9.70;99.90;;;;;;4957346;28;20102;-75
2023/12/26 14:49:45;;;;;;;2.38;1.23;;;9.70;99.90;;;;;;4955229;28;20424;-77
2023/12/26 14:52:11;;;;;;;5.40;1.48;;;9.80;99.90;;;;;;4955854;28;20038;-76
2023/12/26 14:54:37;;;;;;;4.15;1.42;;;9.70;99.90;;;;;;4955991;28;20039;-76
2023/12/26 14:57:02;;;;;;;7.40;1.42;;;9.70;99.90;;;;;;4956680;28;20074;-76
2023/12/26 14:59:28;;;;;;;3.33;1.48;;;9.70;99.90;;;;;;4957326;28;20038;-76
2023/12/26 15:01:58;;;;;;;5.15;1.30;;;9.60;99.90;;;;;;4955303;28;20035;-76
2023/12/26 15:04:27;;;;;;;4.32;1.50;;;9.60;99.90;;;;;;4956328;28;20055;-76
2023/12/26 15:06:56;;;;;;;5.13;1.70;;;9.60;99.90;;;;;;4955294;28;20027;-76
2023/12/26 15:09:22;;;;;;;4.50;1.85;;;9.60;99.90;;;;;;4956951;28;20106;-76
2023/12/26 15:11:48;;;;;;;2.60;1.30;;;9.60;99.90;;;;;;4956453;28;20065;-76
2023/12/26 15:14:13;;;;;;;3.40;1.38;;;9.50;99.90;;;;;;4955579;29;20365;-76
2023/12/26 15:16:39;;;;;;;1.88;1.30;;;9.50;99.90;;;;;;4955578;28;20024;-76
2023/12/26 15:19:05;;;;;;;4.68;1.35;;;9.50;99.90;;;;;;4955062;28;20572;-76
2023/12/26 15:21:30;;;;;;;4.25;1.67;;;9.50;99.90;;;;;;4956790;28;20039;-76
2023/12/26 15:23:56;;;;;;;4.30;1.48;;;9.50;99.90;;;;;;4954098;28;20031;-76
2023/12/26 15:26:21;;;;;;;4.55;1.38;;;9.50;99.90;;;;;;4956619;28;20075;-75
2023/12/26 15:28:48;;;;;;;6.35;1.40;;;9.50;99.90;;;;;;4954946;29;20031;-76
2023/12/26 15:31:15;;;;;;;4.85;1.42;;;9.50;99.90;;;;;;4956562;28;20054;-76
2023/12/26 15:33:46;;;;;;;3.05;1.13;;;9.40;99.90;;;;;;4956580;28;20503;-76
2023/12/26 15:36:19;;;;;;;4.13;1.50;;;9.40;99.90;;;;;;4956866;28;20035;-76
2023/12/26 15:38:46;;;;;;;4.38;1.10;;;9.40;99.90;;;;;;4975692;28;20047;-76
2023/12/26 15:41:12;;;;;;;5.63;1.20;;;9.50;99.90;;;;;;4958321;28;20031;-76
2023/12/26 15:43:38;;;;;;;5.10;1.30;;;9.40;99.90;;;;;;4975476;28;20038;-76